createdAt,value
2019-03-18T00:00:58.182Z,4.30
2019-03-18T00:03:28.475Z,4.20
2019-03-18T00:05:58.810Z,4.00
2019-03-18T00:08:29.479Z,3.60
2019-03-18T00:10:59.613Z,3.30
2019-03-18T00:13:29.410Z,3.10
2019-03-18T00:15:59.099Z,3.00
2019-03-18T00:18:29.169Z,3.00
2019-03-18T00:20:59.177Z,2.80
2019-03-18T00:23:28.842Z,2.70
2019-03-18T00:25:58.931Z,2.60
2019-03-18T00:28:29.057Z,2.60
2019-03-18T00:30:59.450Z,2.70
2019-03-18T00:33:29.874Z,2.60
2019-03-18T00:36:00.826Z,2.60
2019-03-18T00:38:35.313Z,2.70
2019-03-18T00:41:05.417Z,2.60
2019-03-18T00:43:35.155Z,2.50
2019-03-18T00:46:05.290Z,2.40
2019-03-18T00:48:35.036Z,2.30
2019-03-18T00:51:05.638Z,2.30
2019-03-18T00:53:35.421Z,2.20
2019-03-18T00:56:06.573Z,2.40
2019-03-18T00:58:36.301Z,2.40
2019-03-18T01:01:06.122Z,2.50
2019-03-18T01:03:35.782Z,2.50
2019-03-18T01:06:07.698Z,2.70
2019-03-18T01:08:37.690Z,2.80
2019-03-18T01:11:08.375Z,2.80
2019-03-18T01:13:38.086Z,2.90
2019-03-18T01:16:07.818Z,2.80
2019-03-18T01:18:37.799Z,2.90
2019-03-18T01:21:07.786Z,3.00
2019-03-18T01:23:37.790Z,3.10
2019-03-18T01:26:08.201Z,3.20
2019-03-18T01:28:38.190Z,3.30
2019-03-18T01:31:08.436Z,3.50
2019-03-18T01:33:58.081Z,3.50
2019-03-18T01:36:28.010Z,3.50
2019-03-18T01:38:57.967Z,3.60
2019-03-18T01:41:27.926Z,3.70
2019-03-18T01:43:57.641Z,3.90
2019-03-18T01:46:27.738Z,3.90
2019-03-18T01:48:58.314Z,4.10
2019-03-18T01:51:28.460Z,4.10
2019-03-18T01:53:58.155Z,4.20
2019-03-18T01:56:28.494Z,4.10
2019-03-18T01:58:58.430Z,4.10
2019-03-18T02:01:28.417Z,4.10
2019-03-18T02:03:58.411Z,4.10
2019-03-18T02:06:31.602Z,4.10
2019-03-18T02:09:01.610Z,4.00
2019-03-18T02:11:31.817Z,3.90
2019-03-18T02:14:01.810Z,3.80
2019-03-18T02:16:31.453Z,3.70
2019-03-18T02:19:01.197Z,3.50
2019-03-18T02:21:30.859Z,3.20
2019-03-18T02:24:00.790Z,2.90
2019-03-18T02:26:30.747Z,2.60
2019-03-18T02:29:00.718Z,2.50
2019-03-18T02:31:30.795Z,2.40
2019-03-18T02:34:01.117Z,2.30
2019-03-18T02:36:31.227Z,2.30
2019-03-18T02:39:04.111Z,2.30
2019-03-18T02:41:33.758Z,2.30
2019-03-18T02:44:03.768Z,1.90
2019-03-18T02:46:34.162Z,1.70
2019-03-18T02:49:04.307Z,1.50
2019-03-18T02:51:34.299Z,1.50
2019-03-18T02:54:10.563Z,1.40
2019-03-18T02:56:40.938Z,1.30
2019-03-18T02:59:11.108Z,1.10
2019-03-18T03:01:41.342Z,1.00
2019-03-18T03:04:11.455Z,1.00
2019-03-18T03:06:41.670Z,1.00
2019-03-18T03:09:11.582Z,0.90
2019-03-18T03:11:41.399Z,0.90
2019-03-18T03:14:12.028Z,0.90
2019-03-18T03:16:42.154Z,0.90
2019-03-18T03:19:12.611Z,0.90
2019-03-18T03:21:42.352Z,0.90
2019-03-18T03:24:12.605Z,0.90
2019-03-18T03:26:43.043Z,0.90
2019-03-18T03:29:13.784Z,0.90
2019-03-18T03:31:43.904Z,1.00
2019-03-18T03:34:14.523Z,1.10
2019-03-18T03:36:45.523Z,1.10
2019-03-18T03:39:15.704Z,1.10
2019-03-18T03:41:46.058Z,1.20
2019-03-18T03:44:16.543Z,1.10
2019-03-18T03:46:46.707Z,1.20
2019-03-18T03:49:17.267Z,1.10
2019-03-18T03:51:47.510Z,1.10
2019-03-18T03:54:18.240Z,1.20
2019-03-18T03:57:07.823Z,1.20
2019-03-18T03:59:38.446Z,1.30
2019-03-18T04:02:09.183Z,1.40
2019-03-18T04:04:39.860Z,1.30
2019-03-18T04:07:10.361Z,1.40
2019-03-18T04:09:40.562Z,1.40
2019-03-18T04:12:11.175Z,1.40
2019-03-18T04:14:41.821Z,1.40
2019-03-18T04:17:12.189Z,1.40
2019-03-18T04:19:42.816Z,1.40
2019-03-18T04:22:13.212Z,1.30
2019-03-18T04:24:43.856Z,1.30
2019-03-18T04:27:13.715Z,1.20
2019-03-18T04:29:44.260Z,1.20
2019-03-18T04:32:14.702Z,1.20
2019-03-18T04:34:44.833Z,1.20
2019-03-18T04:37:15.276Z,1.30
2019-03-18T04:39:45.413Z,1.20
2019-03-18T04:42:15.831Z,1.30
2019-03-18T04:44:45.654Z,1.20
2019-03-18T04:47:16.047Z,1.30
2019-03-18T04:49:46.980Z,1.30
2019-03-18T04:52:17.505Z,1.20
2019-03-18T04:54:47.279Z,1.20
2019-03-18T04:57:17.052Z,1.20
2019-03-18T04:59:47.109Z,1.10
2019-03-18T05:02:17.067Z,1.10
2019-03-18T05:04:47.057Z,1.20
2019-03-18T05:07:16.895Z,1.20
2019-03-18T05:09:48.848Z,1.20
2019-03-18T05:12:19.074Z,1.30
2019-03-18T05:14:49.538Z,1.30
2019-03-18T05:17:26.506Z,1.40
2019-03-18T05:19:52.815Z,1.50
2019-03-18T05:22:23.514Z,1.40
2019-03-18T05:24:53.969Z,1.40
2019-03-18T05:27:24.439Z,1.50
2019-03-18T05:29:54.543Z,1.50
2019-03-18T05:32:24.639Z,1.80
2019-03-18T05:34:54.999Z,1.60
2019-03-18T05:37:24.998Z,1.60
2019-03-18T05:39:55.534Z,1.60
2019-03-18T05:42:25.903Z,1.60
2019-03-18T05:44:56.335Z,1.60
2019-03-18T05:47:45.562Z,1.60
2019-03-18T05:50:15.675Z,1.50
2019-03-18T05:52:46.055Z,1.50
2019-03-18T05:55:16.507Z,1.50
2019-03-18T05:57:46.622Z,1.60
2019-03-18T06:00:16.758Z,1.60
2019-03-18T06:02:47.503Z,1.60
2019-03-18T06:05:18.066Z,1.60
2019-03-18T06:07:48.432Z,1.70
2019-03-18T06:10:18.568Z,1.90
2019-03-18T06:12:48.744Z,2.00
2019-03-18T06:15:19.290Z,2.10
2019-03-18T06:17:52.704Z,2.20
2019-03-18T06:20:20.657Z,2.40
2019-03-18T06:22:50.713Z,2.50
2019-03-18T06:25:21.083Z,2.50
2019-03-18T06:27:51.534Z,2.60
2019-03-18T06:30:22.012Z,2.70
2019-03-18T06:32:52.187Z,2.90
2019-03-18T06:35:22.038Z,2.90
2019-03-18T06:37:52.434Z,3.00
2019-03-18T06:40:22.667Z,3.00
2019-03-18T06:42:52.576Z,3.00
2019-03-18T06:45:22.423Z,3.10
2019-03-18T06:48:03.815Z,3.10
2019-03-18T06:50:23.821Z,3.20
2019-03-18T06:52:53.659Z,3.40
2019-03-18T06:55:24.124Z,3.50
2019-03-18T06:57:53.966Z,3.50
2019-03-18T07:00:23.824Z,3.50
2019-03-18T07:02:53.678Z,3.60
2019-03-18T07:05:23.519Z,3.70
2019-03-18T07:07:53.583Z,3.70
2019-03-18T07:10:24.182Z,3.70
2019-03-18T07:12:54.297Z,3.70
2019-03-18T07:15:24.998Z,3.70
2019-03-18T07:17:55.760Z,3.70
2019-03-18T07:20:25.562Z,3.60
2019-03-18T07:22:56.118Z,3.50
2019-03-18T07:25:26.325Z,3.40
2019-03-18T07:27:57.052Z,3.50
2019-03-18T07:30:26.861Z,3.70
2019-03-18T07:32:57.298Z,3.80
2019-03-18T07:35:27.383Z,3.80
2019-03-18T07:37:58.154Z,3.90
2019-03-18T07:40:28.372Z,4.00
2019-03-18T07:42:58.594Z,4.20
2019-03-18T07:45:28.718Z,4.40
2019-03-18T07:47:58.493Z,4.60
2019-03-18T07:50:28.626Z,4.80
2019-03-18T07:52:58.658Z,4.70
2019-03-18T07:55:28.502Z,4.80
2019-03-18T07:57:58.623Z,5.10
2019-03-18T08:00:28.458Z,5.40
2019-03-18T08:02:58.311Z,6.00
2019-03-18T08:05:28.147Z,5.80
2019-03-18T08:07:57.999Z,5.80
2019-03-18T08:10:27.850Z,5.50
2019-03-18T08:12:58.067Z,5.60
2019-03-18T08:15:28.628Z,5.80
2019-03-18T08:17:59.275Z,5.60
2019-03-18T08:20:29.367Z,5.60
2019-03-18T08:22:59.214Z,5.60
2019-03-18T08:25:29.327Z,5.80
2019-03-18T08:27:59.450Z,5.60
2019-03-18T08:30:29.815Z,5.70
2019-03-18T08:33:00.022Z,5.80
2019-03-18T08:35:39.226Z,5.70
2019-03-18T08:38:09.086Z,5.60
2019-03-18T08:40:38.983Z,5.60
2019-03-18T08:43:09.646Z,5.60
2019-03-18T08:45:39.744Z,5.20
2019-03-18T08:48:10.506Z,5.40
2019-03-18T08:50:40.873Z,5.40
2019-03-18T08:53:11.254Z,5.40
2019-03-18T08:55:41.099Z,5.30
2019-03-18T08:58:10.971Z,5.30
2019-03-18T09:00:40.821Z,5.30
2019-03-18T09:03:10.670Z,5.40
2019-03-18T09:05:40.772Z,5.30
2019-03-18T09:08:11.051Z,5.60
2019-03-18T09:10:41.628Z,5.50
2019-03-18T09:13:12.007Z,5.80
2019-03-18T09:15:42.121Z,6.00
2019-03-18T09:18:12.564Z,5.80
2019-03-18T09:20:42.714Z,6.30
2019-03-18T09:23:13.178Z,6.80
2019-03-18T09:25:43.234Z,6.80
2019-03-18T09:28:13.639Z,7.00
2019-03-18T09:30:43.754Z,7.40
2019-03-18T09:33:14.493Z,7.80
2019-03-18T09:35:45.262Z,7.00
2019-03-18T09:38:15.129Z,6.70
2019-03-18T09:40:45.305Z,6.50
2019-03-18T09:43:16.110Z,6.70
2019-03-18T09:45:46.831Z,7.60
2019-03-18T09:48:16.673Z,7.60
2019-03-18T09:50:46.866Z,8.90
2019-03-18T09:53:21.701Z,10.50
2019-03-18T09:55:49.583Z,10.50
2019-03-18T09:58:19.453Z,9.40
2019-03-18T10:00:49.625Z,8.80
2019-03-18T10:03:20.420Z,9.10
2019-03-18T10:05:50.511Z,9.70
2019-03-18T10:08:20.972Z,10.00
2019-03-18T10:10:51.325Z,9.70
2019-03-18T10:13:21.683Z,8.90
2019-03-18T10:15:51.531Z,8.80
2019-03-18T10:18:21.378Z,8.30
2019-03-18T10:20:51.215Z,8.70
2019-03-18T10:23:21.096Z,8.80
2019-03-18T10:25:51.209Z,9.00
2019-03-18T10:28:20.993Z,8.60
2019-03-18T10:30:50.837Z,8.90
2019-03-18T10:33:20.693Z,9.20
2019-03-18T10:35:50.527Z,8.90
2019-03-18T10:38:20.346Z,9.30
2019-03-18T10:40:51.588Z,9.30
2019-03-18T10:43:22.008Z,9.60
2019-03-18T10:45:51.828Z,11.90
2019-03-18T10:48:21.591Z,13.70
2019-03-18T10:50:51.424Z,13.10
2019-03-18T10:53:21.255Z,10.60
2019-03-18T10:55:51.614Z,9.80
2019-03-18T10:58:21.714Z,10.40
2019-03-18T11:00:52.003Z,10.10
2019-03-18T11:03:22.401Z,9.90
2019-03-18T11:05:52.766Z,9.30
2019-03-18T11:08:22.934Z,9.00
2019-03-18T11:10:53.038Z,9.50
2019-03-18T11:13:23.153Z,9.70
2019-03-18T11:15:53.532Z,9.50
2019-03-18T11:18:23.931Z,9.20
2019-03-18T11:20:54.344Z,9.00
2019-03-18T11:23:24.453Z,9.00
2019-03-18T11:25:55.071Z,9.40
2019-03-18T11:28:25.179Z,9.20
2019-03-18T11:30:55.209Z,9.40
2019-03-18T11:33:28.341Z,8.70
2019-03-18T11:35:57.283Z,8.80
2019-03-18T11:38:27.193Z,8.60
2019-03-18T11:40:57.030Z,8.70
2019-03-18T11:43:27.507Z,9.00
2019-03-18T11:45:57.379Z,9.40
2019-03-18T11:48:27.414Z,9.70
2019-03-18T11:50:57.283Z,9.90
2019-03-18T11:53:27.394Z,10.00
2019-03-18T11:55:57.595Z,9.90
2019-03-18T11:58:28.241Z,9.80
2019-03-18T12:00:59.291Z,10.10
2019-03-18T12:03:31.247Z,11.10
2019-03-18T12:06:01.003Z,11.20
2019-03-18T12:08:31.071Z,11.30
2019-03-18T12:11:01.609Z,10.50
2019-03-18T12:13:31.461Z,10.40
2019-03-18T12:16:01.332Z,10.40
2019-03-18T12:18:31.175Z,10.20
2019-03-18T12:21:01.071Z,10.00
2019-03-18T12:23:30.915Z,9.90
2019-03-18T12:26:00.795Z,10.40
2019-03-18T12:28:30.631Z,10.70
2019-03-18T12:31:00.516Z,10.50
2019-03-18T12:33:30.372Z,9.80
2019-03-18T12:36:00.311Z,10.10
2019-03-18T12:38:30.167Z,10.40
2019-03-18T12:41:00.117Z,11.50
2019-03-18T12:43:29.975Z,11.80
2019-03-18T12:45:59.849Z,11.50
2019-03-18T12:48:30.063Z,11.00
2019-03-18T12:51:00.004Z,11.00
2019-03-18T12:53:29.927Z,11.60
2019-03-18T12:55:59.851Z,12.00
2019-03-18T12:58:29.802Z,12.70
2019-03-18T13:01:11.890Z,12.30
2019-03-18T13:03:31.265Z,12.10
2019-03-18T13:06:01.372Z,11.90
2019-03-18T13:08:31.229Z,12.00
2019-03-18T13:11:01.102Z,11.70
2019-03-18T13:13:32.068Z,11.30
2019-03-18T13:16:02.667Z,11.10
2019-03-18T13:18:33.320Z,10.60
2019-03-18T13:21:08.098Z,10.20
2019-03-18T13:23:35.311Z,10.30
2019-03-18T13:26:05.161Z,10.90
2019-03-18T13:28:35.884Z,11.10
2019-03-18T13:31:05.971Z,10.30
2019-03-18T13:33:35.822Z,10.00
2019-03-18T13:36:05.711Z,9.80
2019-03-18T13:38:36.011Z,9.60
2019-03-18T13:41:05.890Z,9.70
2019-03-18T13:43:36.026Z,9.80
2019-03-18T13:46:05.890Z,10.00
2019-03-18T13:48:35.762Z,10.30
2019-03-18T13:51:05.780Z,10.50
2019-03-18T13:53:35.617Z,10.70
2019-03-18T13:56:05.611Z,10.50
2019-03-18T13:58:35.448Z,10.60
2019-03-18T14:01:05.364Z,10.80
2019-03-18T14:03:35.437Z,10.50
2019-03-18T14:06:05.291Z,10.40
2019-03-18T14:09:15.469Z,10.30
2019-03-18T14:11:45.895Z,9.90
2019-03-18T14:14:16.343Z,9.60
2019-03-18T14:16:46.450Z,9.30
2019-03-18T14:19:16.578Z,9.20
2019-03-18T14:21:46.700Z,8.90
2019-03-18T14:24:17.415Z,8.90
2019-03-18T14:26:47.535Z,9.00
2019-03-18T14:29:18.254Z,9.10
2019-03-18T14:31:48.663Z,9.40
2019-03-18T14:34:18.515Z,9.60
2019-03-18T14:36:48.918Z,9.50
2019-03-18T14:39:19.008Z,9.40
2019-03-18T14:41:49.104Z,9.20
2019-03-18T14:44:19.266Z,9.10
2019-03-18T14:46:49.430Z,9.10
2019-03-18T14:49:19.895Z,9.00
2019-03-18T14:51:50.815Z,9.00
2019-03-18T14:54:21.411Z,8.90
2019-03-18T14:56:51.795Z,8.80
2019-03-18T14:59:22.316Z,8.80
2019-03-18T15:01:52.175Z,8.90
2019-03-18T15:04:22.279Z,9.00
2019-03-18T15:06:52.964Z,9.30
2019-03-18T15:09:23.466Z,9.60
2019-03-18T15:11:54.258Z,9.80
2019-03-18T15:14:25.226Z,9.80
2019-03-18T15:16:55.743Z,9.50
2019-03-18T15:19:25.878Z,9.70
2019-03-18T15:21:58.570Z,9.80
2019-03-18T15:24:28.747Z,9.80
2019-03-18T15:26:59.285Z,9.80
2019-03-18T15:29:29.438Z,9.70
2019-03-18T15:31:59.567Z,9.80
2019-03-18T15:34:30.085Z,9.80
2019-03-18T15:37:00.711Z,9.80
2019-03-18T15:39:31.222Z,9.90
2019-03-18T15:42:01.581Z,9.80
2019-03-18T15:44:32.032Z,9.80
2019-03-18T15:47:02.424Z,9.70
2019-03-18T15:49:32.298Z,9.60
2019-03-18T15:52:10.957Z,9.40
2019-03-18T15:54:34.209Z,9.40
2019-03-18T15:57:04.046Z,9.30
2019-03-18T15:59:34.337Z,9.40
2019-03-18T16:02:04.211Z,9.30
2019-03-18T16:04:34.155Z,8.90
2019-03-18T16:07:03.995Z,8.60
2019-03-18T16:09:33.851Z,8.20
2019-03-18T16:12:03.694Z,8.10
2019-03-18T16:14:33.590Z,7.90
2019-03-18T16:17:03.464Z,7.70
2019-03-18T16:19:33.345Z,7.60
2019-03-18T16:22:03.185Z,7.40
2019-03-18T16:24:33.463Z,7.30
2019-03-18T16:27:03.577Z,7.30
2019-03-18T16:29:33.708Z,7.30
2019-03-18T16:32:11.271Z,7.30
2019-03-18T16:34:35.683Z,7.30
2019-03-18T16:37:05.603Z,7.30
2019-03-18T16:39:35.515Z,7.40
2019-03-18T16:42:05.530Z,7.50
2019-03-18T16:44:35.411Z,7.60
2019-03-18T16:47:05.257Z,7.70
2019-03-18T16:49:35.138Z,7.80
2019-03-18T16:52:05.124Z,8.00
2019-03-18T16:54:35.255Z,8.20
2019-03-18T16:57:05.043Z,8.20
2019-03-18T16:59:34.973Z,8.30
2019-03-18T17:02:04.878Z,8.30
2019-03-18T17:04:34.724Z,8.30
2019-03-18T17:07:04.588Z,8.30
2019-03-18T17:09:34.491Z,8.20
2019-03-18T17:12:04.329Z,8.30
2019-03-18T17:14:34.196Z,8.50
2019-03-18T17:17:06.924Z,8.30
2019-03-18T17:19:36.788Z,8.10
2019-03-18T17:22:06.634Z,8.00
2019-03-18T17:24:36.502Z,7.90
2019-03-18T17:27:06.424Z,7.90
2019-03-18T17:29:36.279Z,7.80
2019-03-18T17:32:06.283Z,7.70
2019-03-18T17:34:36.223Z,7.70
2019-03-18T17:37:06.403Z,7.70
2019-03-18T17:39:36.319Z,7.60
2019-03-18T17:42:06.444Z,7.50
2019-03-18T17:44:36.612Z,7.40
2019-03-18T17:47:07.595Z,7.40
2019-03-18T17:49:38.243Z,7.40
2019-03-18T17:52:08.469Z,7.30
2019-03-18T17:54:38.683Z,7.30
2019-03-18T17:57:11.015Z,7.30
2019-03-18T17:59:40.852Z,7.20
2019-03-18T18:02:11.676Z,7.20
2019-03-18T18:04:41.594Z,7.10
2019-03-18T18:07:11.547Z,7.00
2019-03-18T18:09:41.460Z,7.00
2019-03-18T18:12:11.376Z,6.90
2019-03-18T18:14:41.663Z,6.90
2019-03-18T18:17:11.504Z,6.90
2019-03-18T18:19:41.363Z,6.90
2019-03-18T18:22:11.940Z,6.90
2019-03-18T18:24:42.240Z,6.50
2019-03-18T18:27:12.779Z,6.40
2019-03-18T18:29:42.819Z,6.20
2019-03-18T18:32:13.221Z,6.30
2019-03-18T18:34:43.086Z,6.30
2019-03-18T18:37:14.597Z,6.20
2019-03-18T18:39:45.237Z,6.10
2019-03-18T18:42:15.472Z,5.90
2019-03-18T18:44:46.095Z,5.80
2019-03-18T18:47:17.141Z,5.70
2019-03-18T18:49:46.990Z,5.60
2019-03-18T18:52:16.839Z,5.40
2019-03-18T18:54:47.388Z,5.20
2019-03-18T18:57:17.933Z,5.10
2019-03-18T18:59:48.649Z,5.10
2019-03-18T19:02:19.298Z,5.00
2019-03-18T19:04:49.177Z,4.80
2019-03-18T19:07:19.063Z,4.70
2019-03-18T19:09:48.995Z,4.60
2019-03-18T19:12:19.626Z,4.50
2019-03-18T19:14:50.197Z,4.40
2019-03-18T19:17:23.127Z,4.30
2019-03-18T19:19:53.441Z,4.20
2019-03-18T19:22:23.957Z,4.20
2019-03-18T19:24:54.975Z,4.10
2019-03-18T19:27:25.100Z,4.00
2019-03-18T19:29:55.315Z,3.90
2019-03-18T19:32:25.519Z,3.80
2019-03-18T19:34:55.391Z,3.70
2019-03-18T19:37:25.966Z,3.60
2019-03-18T19:39:56.895Z,3.50
2019-03-18T19:42:27.302Z,3.50
2019-03-18T19:44:57.172Z,3.40
2019-03-18T19:47:27.214Z,3.30
2019-03-18T19:49:57.861Z,3.20
2019-03-18T19:52:27.734Z,3.20
2019-03-18T19:54:58.130Z,3.20
2019-03-18T19:57:28.246Z,3.10
2019-03-18T19:59:58.696Z,3.00
2019-03-18T20:02:28.814Z,3.00
2019-03-18T20:04:58.944Z,2.90
2019-03-18T20:07:30.027Z,2.90
2019-03-18T20:10:01.203Z,2.80
2019-03-18T20:12:32.100Z,2.70
2019-03-18T20:15:02.259Z,2.70
2019-03-18T20:17:32.147Z,2.70
2019-03-18T20:20:02.063Z,2.80
2019-03-18T20:22:31.957Z,2.80
2019-03-18T20:25:01.864Z,2.80
2019-03-18T20:27:32.175Z,2.80
2019-03-18T20:30:04.284Z,2.70
2019-03-18T20:32:33.719Z,2.70
2019-03-18T20:35:11.415Z,2.50
2019-03-18T20:37:41.315Z,2.50
2019-03-18T20:40:12.365Z,2.50
2019-03-18T20:42:42.388Z,2.50
2019-03-18T20:45:13.611Z,2.40
2019-03-18T20:47:43.557Z,2.30
2019-03-18T20:50:15.052Z,2.30
2019-03-18T20:52:46.449Z,2.30
2019-03-18T20:55:16.398Z,2.30
2019-03-18T20:57:46.589Z,2.20
2019-03-18T21:00:17.017Z,2.10
2019-03-18T21:02:46.927Z,2.10
2019-03-18T21:05:16.768Z,2.10
2019-03-18T21:07:46.627Z,2.10
2019-03-18T21:10:16.648Z,1.90
2019-03-18T21:12:46.556Z,1.90
2019-03-18T21:15:16.588Z,1.90
2019-03-18T21:17:46.509Z,1.90
2019-03-18T21:20:16.543Z,1.90
2019-03-18T21:22:46.457Z,1.90
2019-03-18T21:25:35.762Z,1.90
2019-03-18T21:28:05.622Z,1.90
2019-03-18T21:30:35.486Z,1.80
2019-03-18T21:33:05.369Z,1.70
2019-03-18T21:35:35.367Z,1.80
2019-03-18T21:38:05.225Z,1.80
2019-03-18T21:40:35.582Z,1.60
2019-03-18T21:43:05.429Z,1.70
2019-03-18T21:45:35.697Z,1.70
2019-03-18T21:48:05.606Z,1.70
2019-03-18T21:50:35.558Z,1.60
2019-03-18T21:53:05.503Z,1.50
2019-03-18T21:55:35.374Z,1.50
2019-03-18T21:58:05.522Z,1.50
2019-03-18T22:00:35.686Z,1.50
2019-03-18T22:03:05.651Z,1.40
2019-03-18T22:05:35.546Z,1.40
2019-03-18T22:08:05.765Z,1.50
2019-03-18T22:10:35.857Z,1.50
2019-03-18T22:13:06.065Z,1.40
2019-03-18T22:15:36.233Z,1.30
2019-03-18T22:18:06.989Z,1.20
2019-03-18T22:20:36.880Z,1.20
2019-03-18T22:23:06.866Z,1.20
2019-03-18T22:25:37.122Z,1.30
2019-03-18T22:28:09.444Z,1.20
2019-03-18T22:30:39.597Z,1.10
2019-03-18T22:33:09.735Z,1.00
2019-03-18T22:35:40.238Z,1.00
2019-03-18T22:38:10.938Z,0.90
2019-03-18T22:40:41.135Z,0.90
2019-03-18T22:43:11.243Z,0.90
2019-03-18T22:45:41.932Z,0.90
2019-03-18T22:48:12.311Z,1.00
2019-03-18T22:50:42.476Z,0.90
2019-03-18T22:53:12.327Z,1.00
2019-03-18T22:55:42.260Z,1.10
2019-03-18T22:58:12.422Z,1.10
2019-03-18T23:00:50.179Z,1.10
2019-03-18T23:03:20.141Z,1.10
2019-03-18T23:05:50.061Z,1.00
2019-03-18T23:08:39.038Z,0.90
2019-03-18T23:11:09.254Z,0.90
2019-03-18T23:13:39.809Z,0.80
2019-03-18T23:16:09.718Z,0.70
2019-03-18T23:18:59.003Z,0.70
2019-03-18T23:21:29.542Z,0.70
2019-03-18T23:23:59.753Z,0.70
2019-03-18T23:26:30.294Z,0.60
2019-03-18T23:29:00.831Z,0.50
2019-03-18T23:31:30.890Z,0.60
2019-03-18T23:34:01.466Z,0.60
2019-03-18T23:36:31.573Z,0.60
2019-03-18T23:39:01.618Z,0.50
2019-03-18T23:41:31.975Z,0.50
2019-03-18T23:44:02.443Z,0.40
2019-03-18T23:46:33.294Z,0.50
2019-03-18T23:49:03.426Z,0.40
2019-03-18T23:51:34.139Z,0.40
2019-03-18T23:54:04.186Z,0.50
2019-03-18T23:56:34.379Z,0.50
2019-03-18T23:59:04.806Z,0.50
